sensor_id;sensor_type;location;lat;lon;timestamp;P1;durP1;ratioP1;P2;durP2;ratioP2
80270;SDS011;69573;45.560;10.200;2023-04-24T00:01:55;8.30;;;6.65;;
80270;SDS011;69573;45.560;10.200;2023-04-24T00:04:21;7.38;;;6.63;;
80270;SDS011;69573;45.560;10.200;2023-04-24T00:06:50;8.57;;;7.28;;
80270;SDS011;69573;45.560;10.200;2023-04-24T00:09:19;7.93;;;7.13;;
80270;SDS011;69573;45.560;10.200;2023-04-24T00:11:45;7.95;;;7.10;;
80270;SDS011;69573;45.560;10.200;2023-04-24T00:14:12;9.23;;;7.30;;
80270;SDS011;69573;45.560;10.200;2023-04-24T00:16:38;9.55;;;7.07;;
80270;SDS011;69573;45.560;10.200;2023-04-24T00:19:05;7.43;;;6.72;;
80270;SDS011;69573;45.560;10.200;2023-04-24T00:21:32;9.75;;;6.97;;
80270;SDS011;69573;45.560;10.200;2023-04-24T00:23:58;9.77;;;7.38;;
80270;SDS011;69573;45.560;10.200;2023-04-24T00:26:25;8.55;;;7.63;;
80270;SDS011;69573;45.560;10.200;2023-04-24T00:28:51;10.07;;;6.85;;
80270;SDS011;69573;45.560;10.200;2023-04-24T00:31:17;9.50;;;7.72;;
80270;SDS011;69573;45.560;10.200;2023-04-24T00:33:44;8.95;;;7.68;;
80270;SDS011;69573;45.560;10.200;2023-04-24T00:36:10;8.75;;;7.95;;
80270;SDS011;69573;45.560;10.200;2023-04-24T00:38:37;9.90;;;8.90;;
80270;SDS011;69573;45.560;10.200;2023-04-24T00:41:03;10.45;;;9.45;;
80270;SDS011;69573;45.560;10.200;2023-04-24T00:43:30;10.50;;;8.88;;
80270;SDS011;69573;45.560;10.200;2023-04-24T00:45:56;11.70;;;9.25;;
80270;SDS011;69573;45.560;10.200;2023-04-24T00:48:24;10.95;;;9.15;;
80270;SDS011;69573;45.560;10.200;2023-04-24T00:50:50;8.75;;;7.85;;
80270;SDS011;69573;45.560;10.200;2023-04-24T00:53:16;11.93;;;9.27;;
80270;SDS011;69573;45.560;10.200;2023-04-24T00:55:43;10.75;;;9.25;;
80270;SDS011;69573;45.560;10.200;2023-04-24T00:58:10;10.77;;;9.77;;
80270;SDS011;69573;45.560;10.200;2023-04-24T01:00:36;9.98;;;8.88;;
80270;SDS011;69573;45.560;10.200;2023-04-24T01:03:03;9.75;;;8.40;;
80270;SDS011;69573;45.560;10.200;2023-04-24T01:05:30;12.23;;;9.30;;
80270;SDS011;69573;45.560;10.200;2023-04-24T01:07:57;10.18;;;8.57;;
80270;SDS011;69573;45.560;10.200;2023-04-24T01:10:24;11.57;;;8.35;;
80270;SDS011;69573;45.560;10.200;2023-04-24T01:12:51;11.10;;;10.10;;
80270;SDS011;69573;45.560;10.200;2023-04-24T01:15:17;10.93;;;9.90;;
80270;SDS011;69573;45.560;10.200;2023-04-24T01:17:44;9.77;;;8.77;;
80270;SDS011;69573;45.560;10.200;2023-04-24T01:20:10;9.63;;;8.73;;
80270;SDS011;69573;45.560;10.200;2023-04-24T01:22:36;10.48;;;8.82;;
80270;SDS011;69573;45.560;10.200;2023-04-24T01:25:02;10.70;;;9.18;;
80270;SDS011;69573;45.560;10.200;2023-04-24T01:27:29;9.23;;;8.18;;
80270;SDS011;69573;45.560;10.200;2023-04-24T01:29:55;9.88;;;8.73;;
80270;SDS011;69573;45.560;10.200;2023-04-24T01:32:22;9.52;;;8.63;;
80270;SDS011;69573;45.560;10.200;2023-04-24T01:34:49;8.73;;;8.02;;
80270;SDS011;69573;45.560;10.200;2023-04-24T01:37:16;9.52;;;8.18;;
80270;SDS011;69573;45.560;10.200;2023-04-24T01:39:43;10.25;;;8.20;;
80270;SDS011;69573;45.560;10.200;2023-04-24T01:42:09;7.20;;;6.50;;
80270;SDS011;69573;45.560;10.200;2023-04-24T01:44:35;8.10;;;7.10;;
80270;SDS011;69573;45.560;10.200;2023-04-24T01:47:01;9.20;;;7.50;;
80270;SDS011;69573;45.560;10.200;2023-04-24T01:49:28;8.45;;;6.72;;
80270;SDS011;69573;45.560;10.200;2023-04-24T01:51:54;9.55;;;6.93;;
80270;SDS011;69573;45.560;10.200;2023-04-24T01:54:21;8.38;;;7.57;;
80270;SDS011;69573;45.560;10.200;2023-04-24T01:56:50;8.52;;;7.68;;
80270;SDS011;69573;45.560;10.200;2023-04-24T01:59:16;6.70;;;6.05;;
80270;SDS011;69573;45.560;10.200;2023-04-24T02:01:43;7.72;;;6.95;;
80270;SDS011;69573;45.560;10.200;2023-04-24T02:04:10;5.97;;;5.47;;
80270;SDS011;69573;45.560;10.200;2023-04-24T02:06:36;6.45;;;5.70;;
80270;SDS011;69573;45.560;10.200;2023-04-24T02:09:02;6.75;;;6.15;;
80270;SDS011;69573;45.560;10.200;2023-04-24T02:11:28;7.07;;;5.93;;
80270;SDS011;69573;45.560;10.200;2023-04-24T02:13:54;8.43;;;6.32;;
80270;SDS011;69573;45.560;10.200;2023-04-24T02:16:21;6.50;;;5.88;;
80270;SDS011;69573;45.560;10.200;2023-04-24T02:18:47;6.93;;;6.22;;
80270;SDS011;69573;45.560;10.200;2023-04-24T02:21:14;7.80;;;6.90;;
80270;SDS011;69573;45.560;10.200;2023-04-24T02:23:40;9.32;;;6.43;;
80270;SDS011;69573;45.560;10.200;2023-04-24T02:26:06;7.63;;;6.57;;
80270;SDS011;69573;45.560;10.200;2023-04-24T02:28:33;8.55;;;6.90;;
80270;SDS011;69573;45.560;10.200;2023-04-24T02:30:59;7.18;;;6.57;;
80270;SDS011;69573;45.560;10.200;2023-04-24T02:33:26;8.63;;;7.13;;
80270;SDS011;69573;45.560;10.200;2023-04-24T02:35:52;7.85;;;6.85;;
80270;SDS011;69573;45.560;10.200;2023-04-24T02:38:18;8.68;;;6.80;;
80270;SDS011;69573;45.560;10.200;2023-04-24T02:40:44;7.57;;;6.88;;
80270;SDS011;69573;45.560;10.200;2023-04-24T02:43:11;9.45;;;7.78;;
80270;SDS011;69573;45.560;10.200;2023-04-24T02:45:38;9.25;;;7.07;;
80270;SDS011;69573;45.560;10.200;2023-04-24T02:48:04;7.75;;;6.45;;
80270;SDS011;69573;45.560;10.200;2023-04-24T02:50:30;8.68;;;7.82;;
80270;SDS011;69573;45.560;10.200;2023-04-24T02:52:58;9.35;;;7.78;;
80270;SDS011;69573;45.560;10.200;2023-04-24T02:55:25;8.65;;;6.90;;
80270;SDS011;69573;45.560;10.200;2023-04-24T02:57:52;8.05;;;7.22;;
80270;SDS011;69573;45.560;10.200;2023-04-24T03:00:18;10.48;;;7.65;;
80270;SDS011;69573;45.560;10.200;2023-04-24T03:02:44;8.55;;;7.68;;
80270;SDS011;69573;45.560;10.200;2023-04-24T03:05:11;8.32;;;7.53;;
80270;SDS011;69573;45.560;10.200;2023-04-24T03:07:37;10.20;;;8.32;;
80270;SDS011;69573;45.560;10.200;2023-04-24T03:10:04;9.60;;;8.60;;
80270;SDS011;69573;45.560;10.200;2023-04-24T03:12:31;8.95;;;7.90;;
80270;SDS011;69573;45.560;10.200;2023-04-24T03:14:57;9.75;;;8.75;;
80270;SDS011;69573;45.560;10.200;2023-04-24T03:17:23;10.75;;;8.55;;
80270;SDS011;69573;45.560;10.200;2023-04-24T03:19:49;10.10;;;8.43;;
80270;SDS011;69573;45.560;10.200;2023-04-24T03:22:16;8.52;;;7.70;;
80270;SDS011;69573;45.560;10.200;2023-04-24T03:24:42;8.65;;;7.85;;
80270;SDS011;69573;45.560;10.200;2023-04-24T03:27:08;9.70;;;8.70;;
80270;SDS011;69573;45.560;10.200;2023-04-24T03:29:35;9.70;;;8.70;;
80270;SDS011;69573;45.560;10.200;2023-04-24T03:32:01;9.95;;;8.57;;
80270;SDS011;69573;45.560;10.200;2023-04-24T03:34:27;9.48;;;8.48;;
80270;SDS011;69573;45.560;10.200;2023-04-24T03:36:54;9.95;;;8.95;;
80270;SDS011;69573;45.560;10.200;2023-04-24T03:39:20;11.02;;;9.93;;
80270;SDS011;69573;45.560;10.200;2023-04-24T03:41:47;11.23;;;9.02;;
80270;SDS011;69573;45.560;10.200;2023-04-24T03:44:13;12.52;;;9.10;;
80270;SDS011;69573;45.560;10.200;2023-04-24T03:46:40;10.13;;;9.13;;
80270;SDS011;69573;45.560;10.200;2023-04-24T03:49:06;10.93;;;8.80;;
80270;SDS011;69573;45.560;10.200;2023-04-24T03:51:33;10.60;;;9.48;;
80270;SDS011;69573;45.560;10.200;2023-04-24T03:53:59;11.85;;;10.50;;
80270;SDS011;69573;45.560;10.200;2023-04-24T03:56:25;11.32;;;10.23;;
80270;SDS011;69573;45.560;10.200;2023-04-24T03:58:52;12.13;;;10.50;;
80270;SDS011;69573;45.560;10.200;2023-04-24T04:01:18;11.05;;;10.05;;
80270;SDS011;69573;45.560;10.200;2023-04-24T04:03:45;14.25;;;10.95;;
80270;SDS011;69573;45.560;10.200;2023-04-24T04:06:11;10.73;;;9.68;;
80270;SDS011;69573;45.560;10.200;2023-04-24T04:08:38;11.23;;;9.55;;
80270;SDS011;69573;45.560;10.200;2023-04-24T04:11:04;11.25;;;9.95;;
80270;SDS011;69573;45.560;10.200;2023-04-24T04:13:30;11.35;;;10.27;;
80270;SDS011;69573;45.560;10.200;2023-04-24T04:15:57;12.52;;;10.90;;
80270;SDS011;69573;45.560;10.200;2023-04-24T04:18:23;12.45;;;11.25;;
80270;SDS011;69573;45.560;10.200;2023-04-24T04:20:49;13.50;;;12.15;;
80270;SDS011;69573;45.560;10.200;2023-04-24T04:23:16;13.07;;;11.77;;
80270;SDS011;69573;45.560;10.200;2023-04-24T04:25:42;14.35;;;12.15;;
80270;SDS011;69573;45.560;10.200;2023-04-24T04:28:08;15.00;;;12.73;;
80270;SDS011;69573;45.560;10.200;2023-04-24T04:30:34;14.15;;;12.75;;
80270;SDS011;69573;45.560;10.200;2023-04-24T04:33:03;16.17;;;12.52;;
80270;SDS011;69573;45.560;10.200;2023-04-24T04:35:29;12.88;;;11.55;;
80270;SDS011;69573;45.560;10.200;2023-04-24T04:37:56;13.85;;;12.45;;
80270;SDS011;69573;45.560;10.200;2023-04-24T04:40:24;13.48;;;12.15;;
80270;SDS011;69573;45.560;10.200;2023-04-24T04:42:50;12.88;;;11.57;;
80270;SDS011;69573;45.560;10.200;2023-04-24T04:45:18;12.70;;;11.40;;
80270;SDS011;69573;45.560;10.200;2023-04-24T04:47:45;12.15;;;10.98;;
80270;SDS011;69573;45.560;10.200;2023-04-24T04:50:12;11.82;;;10.65;;
80270;SDS011;69573;45.560;10.200;2023-04-24T04:52:38;13.13;;;10.88;;
80270;SDS011;69573;45.560;10.200;2023-04-24T04:55:05;12.07;;;10.82;;
80270;SDS011;69573;45.560;10.200;2023-04-24T04:57:31;11.70;;;10.60;;
80270;SDS011;69573;45.560;10.200;2023-04-24T04:59:57;11.95;;;10.40;;
80270;SDS011;69573;45.560;10.200;2023-04-24T05:02:24;11.52;;;10.25;;
80270;SDS011;69573;45.560;10.200;2023-04-24T05:04:50;13.70;;;10.48;;
80270;SDS011;69573;45.560;10.200;2023-04-24T05:07:24;11.18;;;10.18;;
80270;SDS011;69573;45.560;10.200;2023-04-24T05:09:50;9.57;;;8.68;;
80270;SDS011;69573;45.560;10.200;2023-04-24T05:12:17;9.93;;;8.98;;
80270;SDS011;69573;45.560;10.200;2023-04-24T05:14:43;8.82;;;8.02;;
80270;SDS011;69573;45.560;10.200;2023-04-24T05:17:10;9.88;;;8.98;;
80270;SDS011;69573;45.560;10.200;2023-04-24T05:19:36;10.93;;;8.63;;
80270;SDS011;69573;45.560;10.200;2023-04-24T05:22:03;9.32;;;8.13;;
80270;SDS011;69573;45.560;10.200;2023-04-24T05:24:31;9.40;;;8.15;;
80270;SDS011;69573;45.560;10.200;2023-04-24T05:26:58;11.63;;;8.35;;
80270;SDS011;69573;45.560;10.200;2023-04-24T05:29:24;10.38;;;9.32;;
80270;SDS011;69573;45.560;10.200;2023-04-24T05:31:51;9.65;;;8.75;;
80270;SDS011;69573;45.560;10.200;2023-04-24T05:34:17;11.00;;;9.90;;
80270;SDS011;69573;45.560;10.200;2023-04-24T05:36:44;10.52;;;9.52;;
80270;SDS011;69573;45.560;10.200;2023-04-24T05:39:10;10.32;;;9.18;;
80270;SDS011;69573;45.560;10.200;2023-04-24T05:41:37;9.43;;;8.43;;
80270;SDS011;69573;45.560;10.200;2023-04-24T05:44:03;8.77;;;7.72;;
80270;SDS011;69573;45.560;10.200;2023-04-24T05:46:29;8.10;;;7.30;;
80270;SDS011;69573;45.560;10.200;2023-04-24T05:48:55;8.40;;;7.57;;
80270;SDS011;69573;45.560;10.200;2023-04-24T05:51:21;8.02;;;7.05;;
80270;SDS011;69573;45.560;10.200;2023-04-24T05:53:47;7.80;;;7.10;;
80270;SDS011;69573;45.560;10.200;2023-04-24T05:56:14;7.10;;;6.40;;
80270;SDS011;69573;45.560;10.200;2023-04-24T05:58:41;7.35;;;6.18;;
80270;SDS011;69573;45.560;10.200;2023-04-24T06:01:07;6.95;;;6.28;;
80270;SDS011;69573;45.560;10.200;2023-04-24T06:03:33;6.95;;;6.25;;
80270;SDS011;69573;45.560;10.200;2023-04-24T06:05:59;6.97;;;5.63;;
80270;SDS011;69573;45.560;10.200;2023-04-24T06:08:26;7.07;;;6.38;;
80270;SDS011;69573;45.560;10.200;2023-04-24T06:10:53;6.90;;;6.25;;
80270;SDS011;69573;45.560;10.200;2023-04-24T06:13:19;6.80;;;6.28;;
80270;SDS011;69573;45.560;10.200;2023-04-24T06:15:45;7.32;;;6.72;;
80270;SDS011;69573;45.560;10.200;2023-04-24T06:18:12;6.78;;;6.22;;
80270;SDS011;69573;45.560;10.200;2023-04-24T06:20:38;6.53;;;6.03;;
80270;SDS011;69573;45.560;10.200;2023-04-24T06:23:05;7.65;;;6.90;;
80270;SDS011;69573;45.560;10.200;2023-04-24T06:25:31;8.32;;;7.15;;
80270;SDS011;69573;45.560;10.200;2023-04-24T06:27:58;7.30;;;6.70;;
80270;SDS011;69573;45.560;10.200;2023-04-24T06:30:24;8.50;;;7.60;;
80270;SDS011;69573;45.560;10.200;2023-04-24T06:32:52;8.20;;;7.43;;
80270;SDS011;69573;45.560;10.200;2023-04-24T06:35:18;8.18;;;7.15;;
80270;SDS011;69573;45.560;10.200;2023-04-24T06:37:45;7.97;;;7.18;;
80270;SDS011;69573;45.560;10.200;2023-04-24T06:40:12;7.53;;;6.82;;
80270;SDS011;69573;45.560;10.200;2023-04-24T06:42:38;7.00;;;6.47;;
80270;SDS011;69573;45.560;10.200;2023-04-24T06:45:04;8.13;;;7.32;;
80270;SDS011;69573;45.560;10.200;2023-04-24T06:47:30;8.70;;;7.72;;
80270;SDS011;69573;45.560;10.200;2023-04-24T06:49:57;8.43;;;7.72;;
80270;SDS011;69573;45.560;10.200;2023-04-24T06:52:23;8.10;;;7.35;;
80270;SDS011;69573;45.560;10.200;2023-04-24T06:54:50;7.78;;;7.07;;
80270;SDS011;69573;45.560;10.200;2023-04-24T06:57:17;8.65;;;6.55;;
80270;SDS011;69573;45.560;10.200;2023-04-24T06:59:43;8.82;;;5.45;;
80270;SDS011;69573;45.560;10.200;2023-04-24T07:02:09;6.70;;;5.93;;
80270;SDS011;69573;45.560;10.200;2023-04-24T07:04:35;8.07;;;6.18;;
80270;SDS011;69573;45.560;10.200;2023-04-24T07:07:02;5.38;;;4.90;;
80270;SDS011;69573;45.560;10.200;2023-04-24T07:09:29;6.80;;;5.68;;
80270;SDS011;69573;45.560;10.200;2023-04-24T07:11:55;6.18;;;5.03;;
80270;SDS011;69573;45.560;10.200;2023-04-24T07:14:22;4.03;;;3.53;;
80270;SDS011;69573;45.560;10.200;2023-04-24T07:16:48;4.32;;;3.55;;
80270;SDS011;69573;45.560;10.200;2023-04-24T07:19:14;4.18;;;3.78;;
80270;SDS011;69573;45.560;10.200;2023-04-24T07:21:40;4.57;;;4.18;;
80270;SDS011;69573;45.560;10.200;2023-04-24T07:24:06;5.53;;;4.15;;
80270;SDS011;69573;45.560;10.200;2023-04-24T07:26:35;4.38;;;3.83;;
80270;SDS011;69573;45.560;10.200;2023-04-24T07:29:02;3.85;;;3.22;;
80270;SDS011;69573;45.560;10.200;2023-04-24T07:31:28;12.02;;;5.22;;
80270;SDS011;69573;45.560;10.200;2023-04-24T07:33:55;5.20;;;4.70;;
80270;SDS011;69573;45.560;10.200;2023-04-24T07:36:23;6.13;;;5.10;;
80270;SDS011;69573;45.560;10.200;2023-04-24T07:38:49;6.03;;;5.43;;
80270;SDS011;69573;45.560;10.200;2023-04-24T07:41:16;6.38;;;4.95;;
80270;SDS011;69573;45.560;10.200;2023-04-24T07:43:43;5.60;;;5.03;;
80270;SDS011;69573;45.560;10.200;2023-04-24T07:46:10;5.30;;;4.80;;
80270;SDS011;69573;45.560;10.200;2023-04-24T07:48:37;4.72;;;4.30;;
80270;SDS011;69573;45.560;10.200;2023-04-24T07:51:03;5.63;;;4.60;;
80270;SDS011;69573;45.560;10.200;2023-04-24T07:53:29;4.10;;;3.45;;
80270;SDS011;69573;45.560;10.200;2023-04-24T07:55:56;3.50;;;3.20;;
80270;SDS011;69573;45.560;10.200;2023-04-24T07:58:22;3.42;;;3.05;;
80270;SDS011;69573;45.560;10.200;2023-04-24T08:00:48;3.17;;;2.95;;
80270;SDS011;69573;45.560;10.200;2023-04-24T08:03:17;2.53;;;2.33;;
80270;SDS011;69573;45.560;10.200;2023-04-24T08:05:46;2.35;;;2.25;;
80270;SDS011;69573;45.560;10.200;2023-04-24T08:08:12;3.05;;;2.30;;
80270;SDS011;69573;45.560;10.200;2023-04-24T08:10:38;4.00;;;3.00;;
80270;SDS011;69573;45.560;10.200;2023-04-24T08:13:05;2.50;;;2.30;;
80270;SDS011;69573;45.560;10.200;2023-04-24T08:15:31;4.57;;;2.47;;
80270;SDS011;69573;45.560;10.200;2023-04-24T08:17:57;2.05;;;1.50;;
80270;SDS011;69573;45.560;10.200;2023-04-24T08:20:24;6.45;;;2.00;;
80270;SDS011;69573;45.560;10.200;2023-04-24T08:22:50;2.25;;;1.55;;
80270;SDS011;69573;45.560;10.200;2023-04-24T08:25:16;2.40;;;1.45;;
80270;SDS011;69573;45.560;10.200;2023-04-24T08:27:44;1.50;;;1.40;;
80270;SDS011;69573;45.560;10.200;2023-04-24T08:30:10;3.28;;;1.45;;
80270;SDS011;69573;45.560;10.200;2023-04-24T08:32:37;1.60;;;1.50;;
80270;SDS011;69573;45.560;10.200;2023-04-24T08:35:04;2.15;;;2.05;;
80270;SDS011;69573;45.560;10.200;2023-04-24T08:37:31;2.45;;;2.05;;
80270;SDS011;69573;45.560;10.200;2023-04-24T08:39:58;3.80;;;2.85;;
80270;SDS011;69573;45.560;10.200;2023-04-24T08:42:24;2.88;;;2.67;;
80270;SDS011;69573;45.560;10.200;2023-04-24T08:44:52;2.97;;;2.55;;
80270;SDS011;69573;45.560;10.200;2023-04-24T08:47:18;3.38;;;2.80;;
80270;SDS011;69573;45.560;10.200;2023-04-24T08:49:46;2.83;;;2.63;;
80270;SDS011;69573;45.560;10.200;2023-04-24T08:52:14;2.47;;;2.30;;
80270;SDS011;69573;45.560;10.200;2023-04-24T08:54:41;1.50;;;1.40;;
80270;SDS011;69573;45.560;10.200;2023-04-24T08:57:08;1.60;;;1.50;;
80270;SDS011;69573;45.560;10.200;2023-04-24T08:59:36;1.75;;;1.65;;
80270;SDS011;69573;45.560;10.200;2023-04-24T09:02:04;3.08;;;2.72;;
80270;SDS011;69573;45.560;10.200;2023-04-24T09:04:30;4.57;;;3.65;;
80270;SDS011;69573;45.560;10.200;2023-04-24T09:06:58;3.63;;;3.42;;
80270;SDS011;69573;45.560;10.200;2023-04-24T09:09:25;4.03;;;3.63;;
80270;SDS011;69573;45.560;10.200;2023-04-24T09:11:52;3.40;;;3.10;;
80270;SDS011;69573;45.560;10.200;2023-04-24T09:14:22;3.97;;;3.67;;
80270;SDS011;69573;45.560;10.200;2023-04-24T09:16:49;4.88;;;4.30;;
80270;SDS011;69573;45.560;10.200;2023-04-24T09:19:15;5.05;;;4.57;;
80270;SDS011;69573;45.560;10.200;2023-04-24T09:21:41;4.75;;;3.47;;
80270;SDS011;69573;45.560;10.200;2023-04-24T09:24:14;3.60;;;3.37;;
80270;SDS011;69573;45.560;10.200;2023-04-24T09:26:43;3.67;;;3.38;;
80270;SDS011;69573;45.560;10.200;2023-04-24T09:29:13;5.30;;;3.67;;
80270;SDS011;69573;45.560;10.200;2023-04-24T09:31:40;4.07;;;3.60;;
80270;SDS011;69573;45.560;10.200;2023-04-24T09:34:06;4.03;;;3.70;;
80270;SDS011;69573;45.560;10.200;2023-04-24T09:36:37;3.50;;;3.30;;
80270;SDS011;69573;45.560;10.200;2023-04-24T09:39:07;4.53;;;3.90;;
80270;SDS011;69573;45.560;10.200;2023-04-24T09:41:35;4.20;;;3.80;;
80270;SDS011;69573;45.560;10.200;2023-04-24T09:44:16;4.45;;;4.05;;
80270;SDS011;69573;45.560;10.200;2023-04-24T09:46:43;5.05;;;4.63;;
80270;SDS011;69573;45.560;10.200;2023-04-24T09:49:11;5.57;;;5.05;;
80270;SDS011;69573;45.560;10.200;2023-04-24T09:51:38;5.38;;;4.88;;
80270;SDS011;69573;45.560;10.200;2023-04-24T09:54:07;7.38;;;5.10;;
80270;SDS011;69573;45.560;10.200;2023-04-24T09:56:41;6.13;;;5.63;;
80270;SDS011;69573;45.560;10.200;2023-04-24T09:59:08;7.32;;;5.65;;
80270;SDS011;69573;45.560;10.200;2023-04-24T10:01:34;5.15;;;4.72;;
80270;SDS011;69573;45.560;10.200;2023-04-24T10:04:01;5.50;;;5.00;;
80270;SDS011;69573;45.560;10.200;2023-04-24T10:06:34;5.57;;;5.07;;
80270;SDS011;69573;45.560;10.200;2023-04-24T10:09:00;5.60;;;5.10;;
80270;SDS011;69573;45.560;10.200;2023-04-24T10:11:27;7.20;;;5.80;;
80270;SDS011;69573;45.560;10.200;2023-04-24T10:13:54;6.00;;;5.47;;
80270;SDS011;69573;45.560;10.200;2023-04-24T10:16:21;6.07;;;5.60;;
80270;SDS011;69573;45.560;10.200;2023-04-24T10:18:48;5.90;;;5.38;;
80270;SDS011;69573;45.560;10.200;2023-04-24T10:21:14;6.38;;;5.78;;
80270;SDS011;69573;45.560;10.200;2023-04-24T10:23:41;5.68;;;5.10;;
80270;SDS011;69573;45.560;10.200;2023-04-24T10:26:10;5.20;;;4.70;;
80270;SDS011;69573;45.560;10.200;2023-04-24T10:28:44;4.63;;;4.22;;
80270;SDS011;69573;45.560;10.200;2023-04-24T10:31:14;5.03;;;4.18;;
80270;SDS011;69573;45.560;10.200;2023-04-24T10:33:40;6.07;;;5.15;;
80270;SDS011;69573;45.560;10.200;2023-04-24T10:36:08;5.50;;;5.00;;
80270;SDS011;69573;45.560;10.200;2023-04-24T10:38:35;5.45;;;5.05;;
80270;SDS011;69573;45.560;10.200;2023-04-24T10:41:06;5.35;;;4.85;;
80270;SDS011;69573;45.560;10.200;2023-04-24T10:43:33;5.95;;;4.55;;
80270;SDS011;69573;45.560;10.200;2023-04-24T10:46:00;4.63;;;4.18;;
80270;SDS011;69573;45.560;10.200;2023-04-24T10:48:27;5.32;;;4.82;;
80270;SDS011;69573;45.560;10.200;2023-04-24T10:50:54;4.47;;;4.07;;
80270;SDS011;69573;45.560;10.200;2023-04-24T10:53:21;5.30;;;4.47;;
80270;SDS011;69573;45.560;10.200;2023-04-24T10:55:52;4.57;;;4.15;;
80270;SDS011;69573;45.560;10.200;2023-04-24T10:58:23;6.55;;;4.43;;
80270;SDS011;69573;45.560;10.200;2023-04-24T11:00:56;4.20;;;3.80;;
80270;SDS011;69573;45.560;10.200;2023-04-24T11:03:24;4.95;;;4.55;;
80270;SDS011;69573;45.560;10.200;2023-04-24T11:05:51;4.30;;;4.00;;
80270;SDS011;69573;45.560;10.200;2023-04-24T11:08:22;4.15;;;3.67;;
80270;SDS011;69573;45.560;10.200;2023-04-24T11:16:21;3.97;;;3.22;;
80270;SDS011;69573;45.560;10.200;2023-04-24T11:18:50;3.97;;;3.50;;
80270;SDS011;69573;45.560;10.200;2023-04-24T11:21:20;3.33;;;3.05;;
80270;SDS011;69573;45.560;10.200;2023-04-24T11:23:46;3.13;;;2.92;;
80270;SDS011;69573;45.560;10.200;2023-04-24T11:26:16;4.22;;;3.38;;
80270;SDS011;69573;45.560;10.200;2023-04-24T11:28:47;5.03;;;4.53;;
80270;SDS011;69573;45.560;10.200;2023-04-24T11:34:05;5.38;;;4.72;;
80270;SDS011;69573;45.560;10.200;2023-04-24T11:36:31;4.57;;;4.18;;
80270;SDS011;69573;45.560;10.200;2023-04-24T11:38:57;5.60;;;5.10;;
80270;SDS011;69573;45.560;10.200;2023-04-24T11:41:24;5.30;;;4.80;;
80270;SDS011;69573;45.560;10.200;2023-04-24T11:43:51;4.55;;;4.15;;
80270;SDS011;69573;45.560;10.200;2023-04-24T11:46:17;4.75;;;4.35;;
80270;SDS011;69573;45.560;10.200;2023-04-24T11:48:46;7.78;;;4.45;;
80270;SDS011;69573;45.560;10.200;2023-04-24T11:51:13;4.97;;;4.57;;
80270;SDS011;69573;45.560;10.200;2023-04-24T11:53:39;4.78;;;3.90;;
80270;SDS011;69573;45.560;10.200;2023-04-24T11:56:06;4.60;;;4.20;;
80270;SDS011;69573;45.560;10.200;2023-04-24T11:58:34;3.90;;;3.60;;
80270;SDS011;69573;45.560;10.200;2023-04-24T12:01:01;4.10;;;3.80;;
80270;SDS011;69573;45.560;10.200;2023-04-24T12:03:27;3.70;;;3.40;;
80270;SDS011;69573;45.560;10.200;2023-04-24T12:06:04;4.00;;;3.50;;
80270;SDS011;69573;45.560;10.200;2023-04-24T12:08:31;3.50;;;3.30;;
80270;SDS011;69573;45.560;10.200;2023-04-24T12:10:57;3.28;;;3.05;;
80270;SDS011;69573;45.560;10.200;2023-04-24T12:13:25;3.55;;;3.25;;
80270;SDS011;69573;45.560;10.200;2023-04-24T12:15:51;3.70;;;3.38;;
80270;SDS011;69573;45.560;10.200;2023-04-24T12:18:18;3.42;;;3.13;;
80270;SDS011;69573;45.560;10.200;2023-04-24T12:20:44;2.78;;;2.50;;
80270;SDS011;69573;45.560;10.200;2023-04-24T12:23:11;2.67;;;2.40;;
80270;SDS011;69573;45.560;10.200;2023-04-24T12:25:38;3.03;;;2.75;;
80270;SDS011;69573;45.560;10.200;2023-04-24T12:30:38;2.58;;;2.38;;
80270;SDS011;69573;45.560;10.200;2023-04-24T12:33:05;4.55;;;2.97;;
80270;SDS011;69573;45.560;10.200;2023-04-24T12:35:32;3.17;;;2.78;;
80270;SDS011;69573;45.560;10.200;2023-04-24T12:38:07;3.23;;;3.03;;
80270;SDS011;69573;45.560;10.200;2023-04-24T12:40:36;3.28;;;3.00;;
80270;SDS011;69573;45.560;10.200;2023-04-24T12:43:02;3.00;;;2.80;;
80270;SDS011;69573;45.560;10.200;2023-04-24T12:45:38;4.10;;;3.10;;
80270;SDS011;69573;45.560;10.200;2023-04-24T12:48:05;4.05;;;3.78;;
80270;SDS011;69573;45.560;10.200;2023-04-24T12:50:31;4.15;;;3.85;;
80270;SDS011;69573;45.560;10.200;2023-04-24T12:52:58;3.85;;;3.38;;
80270;SDS011;69573;45.560;10.200;2023-04-24T12:55:24;5.60;;;3.50;;
80270;SDS011;69573;45.560;10.200;2023-04-24T12:57:50;4.07;;;3.28;;
80270;SDS011;69573;45.560;10.200;2023-04-24T13:00:18;5.00;;;4.60;;
80270;SDS011;69573;45.560;10.200;2023-04-24T13:02:44;4.95;;;4.60;;
80270;SDS011;69573;45.560;10.200;2023-04-24T13:05:11;5.43;;;4.78;;
80270;SDS011;69573;45.560;10.200;2023-04-24T13:07:39;5.00;;;4.60;;
80270;SDS011;69573;45.560;10.200;2023-04-24T13:10:05;4.85;;;4.45;;
80270;SDS011;69573;45.560;10.200;2023-04-24T13:12:31;5.30;;;4.63;;
80270;SDS011;69573;45.560;10.200;2023-04-24T13:14:57;6.68;;;5.88;;
80270;SDS011;69573;45.560;10.200;2023-04-24T13:17:24;5.03;;;4.60;;
80270;SDS011;69573;45.560;10.200;2023-04-24T13:19:51;5.28;;;4.72;;
80270;SDS011;69573;45.560;10.200;2023-04-24T13:22:17;6.40;;;5.82;;
80270;SDS011;69573;45.560;10.200;2023-04-24T13:24:44;7.32;;;6.63;;
80270;SDS011;69573;45.560;10.200;2023-04-24T13:27:10;7.57;;;6.15;;
80270;SDS011;69573;45.560;10.200;2023-04-24T13:29:36;7.25;;;6.63;;
80270;SDS011;69573;45.560;10.200;2023-04-24T13:32:03;7.60;;;6.50;;
80270;SDS011;69573;45.560;10.200;2023-04-24T13:34:29;6.07;;;5.47;;
80270;SDS011;69573;45.560;10.200;2023-04-24T13:36:56;6.55;;;5.95;;
80270;SDS011;69573;45.560;10.200;2023-04-24T13:39:23;7.88;;;6.18;;
80270;SDS011;69573;45.560;10.200;2023-04-24T13:41:50;6.60;;;6.10;;
80270;SDS011;69573;45.560;10.200;2023-04-24T13:44:16;7.55;;;6.80;;
80270;SDS011;69573;45.560;10.200;2023-04-24T13:46:44;6.78;;;6.07;;
80270;SDS011;69573;45.560;10.200;2023-04-24T13:49:11;7.03;;;6.32;;
80270;SDS011;69573;45.560;10.200;2023-04-24T13:51:37;8.00;;;7.25;;
80270;SDS011;69573;45.560;10.200;2023-04-24T13:54:03;9.65;;;7.60;;
80270;SDS011;69573;45.560;10.200;2023-04-24T13:56:29;7.53;;;6.82;;
80270;SDS011;69573;45.560;10.200;2023-04-24T13:58:55;8.80;;;8.00;;
80270;SDS011;69573;45.560;10.200;2023-04-24T14:01:22;7.90;;;7.20;;
80270;SDS011;69573;45.560;10.200;2023-04-24T14:03:50;8.70;;;6.70;;
80270;SDS011;69573;45.560;10.200;2023-04-24T14:06:16;8.48;;;7.70;;
80270;SDS011;69573;45.560;10.200;2023-04-24T14:08:44;8.23;;;7.53;;
80270;SDS011;69573;45.560;10.200;2023-04-24T14:11:11;9.15;;;6.97;;
80270;SDS011;69573;45.560;10.200;2023-04-24T14:13:37;7.18;;;6.57;;
80270;SDS011;69573;45.560;10.200;2023-04-24T14:16:04;7.00;;;6.28;;
80270;SDS011;69573;45.560;10.200;2023-04-24T14:18:30;7.20;;;6.50;;
80270;SDS011;69573;45.560;10.200;2023-04-24T14:20:56;7.25;;;5.80;;
80270;SDS011;69573;45.560;10.200;2023-04-24T14:23:23;4.80;;;4.40;;
80270;SDS011;69573;45.560;10.200;2023-04-24T14:25:49;3.83;;;2.22;;
80270;SDS011;69573;45.560;10.200;2023-04-24T14:28:17;1.08;;;1.00;;
80270;SDS011;69573;45.560;10.200;2023-04-24T14:30:44;2.20;;;0.50;;
80270;SDS011;69573;45.560;10.200;2023-04-24T14:33:10;1.05;;;0.60;;
80270;SDS011;69573;45.560;10.200;2023-04-24T14:35:37;1.38;;;0.50;;
80270;SDS011;69573;45.560;10.200;2023-04-24T14:38:04;1.30;;;0.40;;
80270;SDS011;69573;45.560;10.200;2023-04-24T14:40:31;2.25;;;0.50;;